Weather at Mellen Street Heliport

Public forecast

Using degrees Fahrenheit for public forecast. Weather courtesy of forecast.io.

Closest aviation weather report (METAR) to Mellen Street Heliport

Closest report is Norwood Memorial Airport, 12.0 nm (22.3 km) E. Retrieved 2020/10/22 08:39 UTC (0 seconds ago):

KOWD 220839Z AUTO 11003KT 1/4SM FG VV002 14/13 A3020 RMK AO2 T01440128 PNO

Closest aviation forecast (TAF) to Mellen Street Heliport

Closest forecast is Laurence G Hanscom Field, 17.2 nm (31.8 km) NNE. Retrieved 2020/10/22 06:28 UTC (2 hours ago):

TAF KBED 220526Z 2206/2306 23006KT P6SM SKC FM221100 29003KT P6SM SCT200 FM221400 35003KT P6SM FEW250 FM221900 07004KT P6SM FEW150 FM230200 10003KT P6SM BKN060